createdAt,value
2019-03-10T00:00:37.337Z,0.30
2019-03-10T00:03:06.715Z,0.40
2019-03-10T00:05:35.909Z,0.23
2019-03-10T00:08:07.995Z,0.30
2019-03-10T00:10:37.524Z,0.40
2019-03-10T00:13:06.706Z,0.50
2019-03-10T00:15:36.025Z,0.30
2019-03-10T00:18:05.253Z,0.30
2019-03-10T00:20:34.558Z,0.33
2019-03-10T00:23:04.048Z,0.30
2019-03-10T00:25:33.232Z,0.40
2019-03-10T00:28:02.423Z,0.40
2019-03-10T00:30:31.822Z,0.20
2019-03-10T00:33:01.012Z,0.40
2019-03-10T00:35:30.297Z,0.50
2019-03-10T00:37:59.719Z,0.30
2019-03-10T00:41:22.006Z,0.27
2019-03-10T00:44:27.186Z,0.30
2019-03-10T00:47:32.026Z,0.40
2019-03-10T00:51:01.519Z,0.60
2019-03-10T00:53:30.792Z,0.30
2019-03-10T00:55:59.975Z,0.30
2019-03-10T00:58:29.401Z,0.30
2019-03-10T01:00:58.678Z,0.47
2019-03-10T01:03:27.990Z,0.40
2019-03-10T01:05:57.550Z,0.50
2019-03-10T01:08:26.763Z,0.30
2019-03-10T01:10:57.110Z,0.40
2019-03-10T01:13:26.958Z,0.40
2019-03-10T01:15:56.634Z,0.50
2019-03-10T01:18:27.251Z,0.40
2019-03-10T01:20:59.285Z,0.60
2019-03-10T01:23:28.485Z,0.53
2019-03-10T01:25:57.682Z,0.70
2019-03-10T01:28:27.107Z,0.63
2019-03-10T01:31:07.891Z,0.40
2019-03-10T01:34:02.579Z,0.60
2019-03-10T01:36:30.469Z,0.50
2019-03-10T01:38:59.673Z,0.50
2019-03-10T01:41:29.325Z,0.53
2019-03-10T01:43:58.520Z,0.43
2019-03-10T01:46:27.711Z,0.40
2019-03-10T01:48:57.076Z,0.60
2019-03-10T01:51:27.159Z,0.40
2019-03-10T01:53:56.351Z,0.70
2019-03-10T01:56:25.972Z,0.63
2019-03-10T01:58:55.147Z,0.70
2019-03-10T02:01:24.427Z,0.57
2019-03-10T02:03:54.157Z,0.90
2019-03-10T02:06:24.495Z,0.50
2019-03-10T02:08:53.729Z,0.70
2019-03-10T02:11:23.116Z,0.80
2019-03-10T02:13:52.302Z,0.50
2019-03-10T02:16:21.493Z,0.70
2019-03-10T02:18:50.850Z,0.60
2019-03-10T02:21:20.063Z,0.67
2019-03-10T02:23:49.273Z,0.53
2019-03-10T02:26:18.713Z,0.80
2019-03-10T02:28:47.910Z,0.63
2019-03-10T02:31:17.099Z,0.67
2019-03-10T02:33:46.581Z,0.43
2019-03-10T02:36:15.800Z,0.60
2019-03-10T02:38:44.996Z,0.40
2019-03-10T02:41:14.493Z,0.83
2019-03-10T02:43:43.780Z,0.70
2019-03-10T02:46:12.980Z,0.60
2019-03-10T02:48:42.471Z,0.77
2019-03-10T02:51:11.655Z,0.90
2019-03-10T02:53:40.890Z,0.70
2019-03-10T02:56:10.257Z,0.57
2019-03-10T02:58:39.445Z,0.67
2019-03-10T03:01:08.637Z,1.20
2019-03-10T03:03:38.068Z,0.70
2019-03-10T03:06:09.381Z,0.90
2019-03-10T03:08:38.707Z,0.70
2019-03-10T03:11:08.044Z,1.00
2019-03-10T03:13:37.347Z,0.80
2019-03-10T03:16:07.417Z,0.70
2019-03-10T03:18:36.844Z,0.90
2019-03-10T03:21:06.044Z,0.87
2019-03-10T03:23:36.359Z,1.13
2019-03-10T03:26:05.973Z,0.70
2019-03-10T03:28:35.199Z,1.10
2019-03-10T03:31:04.450Z,0.80
2019-03-10T03:33:33.753Z,1.30
2019-03-10T03:36:16.275Z,0.90
2019-03-10T03:38:52.792Z,0.80
2019-03-10T03:41:22.046Z,1.10
2019-03-10T03:43:51.275Z,1.20
2019-03-10T03:46:20.548Z,1.00
2019-03-10T03:48:49.729Z,0.97
2019-03-10T03:51:19.093Z,0.90
2019-03-10T03:53:48.450Z,0.90
2019-03-10T03:56:17.719Z,0.90
2019-03-10T03:58:46.922Z,0.90
2019-03-10T04:01:19.920Z,1.00
2019-03-10T04:03:49.113Z,0.73
2019-03-10T04:06:20.313Z,1.00
2019-03-10T04:08:49.703Z,1.07
2019-03-10T04:11:18.996Z,1.13
2019-03-10T04:13:48.235Z,0.90
2019-03-10T04:16:17.500Z,0.90
2019-03-10T04:18:46.700Z,0.80
2019-03-10T04:21:15.939Z,0.70
2019-03-10T04:23:45.526Z,0.93
2019-03-10T04:26:14.706Z,1.10
2019-03-10T04:28:43.931Z,0.80
2019-03-10T04:31:13.269Z,1.13
2019-03-10T04:33:42.675Z,0.80
2019-03-10T04:36:11.902Z,0.90
2019-03-10T04:38:41.319Z,0.77
2019-03-10T04:41:10.551Z,1.07
2019-03-10T04:43:39.804Z,0.90
2019-03-10T04:46:09.163Z,0.70
2019-03-10T04:48:38.354Z,0.80
2019-03-10T04:51:07.831Z,1.00
2019-03-10T04:53:37.161Z,0.70
2019-03-10T04:56:11.798Z,1.03
2019-03-10T04:58:45.133Z,0.90
2019-03-10T05:01:14.350Z,0.90
2019-03-10T05:03:43.549Z,0.80
2019-03-10T05:06:13.015Z,0.90
2019-03-10T05:08:42.183Z,0.80
2019-03-10T05:11:11.357Z,0.90
2019-03-10T05:13:40.829Z,1.00
2019-03-10T05:16:10.012Z,0.97
2019-03-10T05:18:39.206Z,0.67
2019-03-10T05:21:08.677Z,0.90
2019-03-10T05:23:45.274Z,1.00
2019-03-10T05:26:15.989Z,1.00
2019-03-10T05:28:46.636Z,1.03
2019-03-10T05:31:16.147Z,0.73
2019-03-10T05:33:45.728Z,0.70
2019-03-10T05:36:15.053Z,0.50
2019-03-10T05:38:44.265Z,0.60
2019-03-10T05:41:13.640Z,0.80
2019-03-10T05:43:42.825Z,0.80
2019-03-10T05:46:12.003Z,0.70
2019-03-10T05:48:41.419Z,0.70
2019-03-10T05:51:10.702Z,0.60
2019-03-10T05:53:40.001Z,0.80
2019-03-10T05:56:09.440Z,0.60
2019-03-10T05:58:38.691Z,0.47
2019-03-10T06:01:08.985Z,0.90
2019-03-10T06:03:38.562Z,0.60
2019-03-10T06:06:07.767Z,0.67
2019-03-10T06:08:36.983Z,0.60
2019-03-10T06:11:06.612Z,0.43
2019-03-10T06:13:35.873Z,0.60
2019-03-10T06:16:05.200Z,0.70
2019-03-10T06:18:34.567Z,0.40
2019-03-10T06:21:03.830Z,0.67
2019-03-10T06:23:33.039Z,0.50
2019-03-10T06:26:02.531Z,0.40
2019-03-10T06:28:31.874Z,0.60
2019-03-10T06:31:01.069Z,0.67
2019-03-10T06:33:30.660Z,0.40
2019-03-10T06:35:59.896Z,0.60
2019-03-10T06:38:29.117Z,0.57
2019-03-10T06:40:58.698Z,0.43
2019-03-10T06:43:28.217Z,0.40
2019-03-10T06:45:57.599Z,0.60
2019-03-10T06:48:27.182Z,1.17
2019-03-10T06:50:56.465Z,0.80
2019-03-10T06:53:25.770Z,0.40
2019-03-10T06:55:55.435Z,0.50
2019-03-10T06:58:24.721Z,0.40
2019-03-10T07:00:53.917Z,0.40
2019-03-10T07:03:23.304Z,0.43
2019-03-10T07:05:52.544Z,0.53
2019-03-10T07:08:21.710Z,0.40
2019-03-10T07:10:51.055Z,0.70
2019-03-10T07:13:22.350Z,0.60
2019-03-10T07:15:52.169Z,0.60
2019-03-10T07:18:21.520Z,0.40
2019-03-10T07:20:50.977Z,0.47
2019-03-10T07:23:20.291Z,0.60
2019-03-10T07:26:05.316Z,0.60
2019-03-10T07:28:54.285Z,0.60
2019-03-10T07:31:51.409Z,0.50
2019-03-10T07:34:54.780Z,0.40
2019-03-10T07:37:41.990Z,0.50
2019-03-10T07:40:33.177Z,0.50
2019-03-10T07:43:09.189Z,0.50
2019-03-10T07:45:53.664Z,0.40
2019-03-10T07:48:43.918Z,0.43
2019-03-10T07:51:30.975Z,0.67
2019-03-10T07:54:17.976Z,0.60
2019-03-10T07:57:09.340Z,0.90
2019-03-10T07:59:57.614Z,0.57
2019-03-10T08:02:45.969Z,0.70
2019-03-10T08:05:37.303Z,0.50
2019-03-10T08:08:20.353Z,0.90
2019-03-10T08:11:20.645Z,0.57
2019-03-10T08:14:09.131Z,0.43
2019-03-10T08:16:57.377Z,0.53
2019-03-10T08:19:45.803Z,0.70
2019-03-10T08:22:30.106Z,0.70
2019-03-10T08:25:17.440Z,0.50
2019-03-10T08:28:03.538Z,0.77
2019-03-10T08:30:55.210Z,0.50
2019-03-10T08:33:55.778Z,0.60
2019-03-10T08:36:44.183Z,0.60
2019-03-10T08:39:32.374Z,0.63
2019-03-10T08:42:20.642Z,0.47
2019-03-10T08:45:01.188Z,0.60
2019-03-10T08:47:48.451Z,0.60
2019-03-10T08:50:42.637Z,0.47
2019-03-10T08:53:29.919Z,0.60
2019-03-10T08:56:18.828Z,0.53
2019-03-10T08:59:25.589Z,0.50
2019-03-10T09:02:12.205Z,0.67
2019-03-10T09:05:03.405Z,0.60
2019-03-10T09:08:00.761Z,0.63
2019-03-10T09:10:55.084Z,0.60
2019-03-10T09:13:49.814Z,0.60
2019-03-10T09:16:28.506Z,0.40
2019-03-10T09:19:16.705Z,0.60
2019-03-10T09:22:08.025Z,0.40
2019-03-10T09:24:56.195Z,0.50
2019-03-10T09:28:02.638Z,0.70
2019-03-10T09:30:53.916Z,0.70
2019-03-10T09:33:57.215Z,0.90
2019-03-10T09:36:42.179Z,0.60
2019-03-10T09:39:29.547Z,0.50
2019-03-10T09:42:16.472Z,0.60
2019-03-10T09:45:04.741Z,0.50
2019-03-10T09:47:42.462Z,0.60
2019-03-10T09:50:32.226Z,0.70
2019-03-10T09:53:25.906Z,0.33
2019-03-10T09:56:17.162Z,0.50
2019-03-10T09:59:17.285Z,0.60
2019-03-10T10:02:08.498Z,0.30
2019-03-10T10:04:49.600Z,0.63
2019-03-10T10:07:33.928Z,0.60
2019-03-10T10:10:20.941Z,0.60
2019-03-10T10:13:00.189Z,0.30
2019-03-10T10:15:51.293Z,0.60
2019-03-10T10:18:42.698Z,0.43
2019-03-10T10:21:28.166Z,0.40
2019-03-10T10:24:22.612Z,0.60
2019-03-10T10:27:00.244Z,0.70
2019-03-10T10:29:51.796Z,0.50
2019-03-10T10:32:26.457Z,0.30
2019-03-10T10:35:17.941Z,0.50
2019-03-10T10:38:06.571Z,0.60
2019-03-10T10:40:45.220Z,0.57
2019-03-10T10:43:31.581Z,0.40
2019-03-10T10:46:17.317Z,0.63
2019-03-10T10:48:58.275Z,0.60
2019-03-10T10:51:59.007Z,0.60
2019-03-10T10:55:05.546Z,0.70
2019-03-10T10:57:52.325Z,0.67
2019-03-10T11:00:32.841Z,0.70
2019-03-10T11:03:20.705Z,0.50
2019-03-10T11:06:14.896Z,0.70
2019-03-10T11:09:09.587Z,0.50
2019-03-10T11:11:55.115Z,0.50
2019-03-10T11:14:52.646Z,0.80
2019-03-10T11:17:33.558Z,0.70
2019-03-10T11:20:24.934Z,0.63
2019-03-10T11:23:04.855Z,0.53
2019-03-10T11:25:52.674Z,0.70
2019-03-10T11:28:46.775Z,0.90
2019-03-10T11:31:25.114Z,1.27
2019-03-10T11:34:02.011Z,0.80
2019-03-10T11:36:40.666Z,0.30
2019-03-10T11:39:32.092Z,1.07
2019-03-10T11:42:11.126Z,0.93
2019-03-10T11:44:46.911Z,0.80
2019-03-10T11:47:33.901Z,0.90
2019-03-10T11:50:25.245Z,0.80
2019-03-10T11:53:19.476Z,0.90
2019-03-10T11:56:05.411Z,0.90
2019-03-10T11:58:39.687Z,0.90
2019-03-10T12:01:26.685Z,0.80
2019-03-10T12:04:18.231Z,0.83
2019-03-10T12:06:56.047Z,0.90
2019-03-10T12:09:25.534Z,1.00
2019-03-10T12:11:54.730Z,0.80
2019-03-10T12:14:23.960Z,1.00
2019-03-10T12:16:55.040Z,0.90
2019-03-10T12:19:24.276Z,0.67
2019-03-10T12:21:55.786Z,0.73
2019-03-10T12:24:24.710Z,1.13
2019-03-10T12:26:54.164Z,1.00
2019-03-10T12:29:23.443Z,0.90
2019-03-10T12:31:52.790Z,1.00
2019-03-10T12:34:22.033Z,1.20
2019-03-10T12:36:51.397Z,1.27
2019-03-10T12:39:20.919Z,0.90
2019-03-10T12:41:57.849Z,1.07
2019-03-10T12:44:21.099Z,1.20
2019-03-10T12:46:50.658Z,0.90
2019-03-10T12:49:19.864Z,1.07
2019-03-10T12:51:49.192Z,1.37
2019-03-10T12:54:18.657Z,0.90
2019-03-10T12:56:48.061Z,0.83
2019-03-10T12:59:17.577Z,1.13
2019-03-10T13:01:46.915Z,0.90
2019-03-10T13:04:16.115Z,1.03
2019-03-10T13:06:45.516Z,1.07
2019-03-10T13:09:17.019Z,0.90
2019-03-10T13:11:46.259Z,0.93
2019-03-10T13:14:15.529Z,1.00
2019-03-10T13:16:44.934Z,0.80
2019-03-10T13:19:14.251Z,1.03
2019-03-10T13:21:43.706Z,1.13
2019-03-10T13:24:13.722Z,0.80
2019-03-10T13:26:43.190Z,1.37
2019-03-10T13:29:13.354Z,1.30
2019-03-10T13:31:42.816Z,1.00
2019-03-10T13:34:12.090Z,0.80
2019-03-10T13:36:41.408Z,0.57
2019-03-10T13:39:10.704Z,1.10
2019-03-10T13:41:40.046Z,0.80
2019-03-10T13:44:09.300Z,1.23
2019-03-10T13:46:38.697Z,0.90
2019-03-10T13:49:07.902Z,0.90
2019-03-10T13:51:37.183Z,0.70
2019-03-10T13:54:10.700Z,0.60
2019-03-10T13:56:39.941Z,0.80
2019-03-10T13:59:09.224Z,0.80
2019-03-10T14:01:38.664Z,0.70
2019-03-10T14:04:07.873Z,0.77
2019-03-10T14:06:37.142Z,0.53
2019-03-10T14:09:09.784Z,0.87
2019-03-10T14:11:38.930Z,1.00
2019-03-10T14:14:08.196Z,1.10
2019-03-10T14:16:37.862Z,0.97
2019-03-10T14:19:07.050Z,0.83
2019-03-10T14:21:36.273Z,0.90
2019-03-10T14:24:06.207Z,1.20
2019-03-10T14:26:35.386Z,0.90
2019-03-10T14:29:04.641Z,0.97
2019-03-10T14:31:34.154Z,1.10
2019-03-10T14:34:03.492Z,1.00
2019-03-10T14:36:32.826Z,1.00
2019-03-10T14:39:04.587Z,0.80
2019-03-10T14:41:34.297Z,0.80
2019-03-10T14:44:03.749Z,0.67
2019-03-10T14:46:32.991Z,0.90
2019-03-10T14:49:02.227Z,0.90
2019-03-10T14:51:32.306Z,0.80
2019-03-10T14:54:01.502Z,0.47
2019-03-10T14:56:30.696Z,1.10
2019-03-10T14:59:00.145Z,0.97
2019-03-10T15:01:29.777Z,0.57
2019-03-10T15:03:58.963Z,0.83
2019-03-10T15:06:28.506Z,0.90
2019-03-10T15:08:57.748Z,1.07
2019-03-10T15:11:27.038Z,0.90
2019-03-10T15:13:56.376Z,1.10
2019-03-10T15:16:25.649Z,1.00
2019-03-10T15:18:56.922Z,1.50
2019-03-10T15:21:26.411Z,1.30
2019-03-10T15:23:55.827Z,1.00
2019-03-10T15:26:25.121Z,1.17
2019-03-10T15:28:54.556Z,1.17
2019-03-10T15:31:23.890Z,1.00
2019-03-10T15:33:53.296Z,1.00
2019-03-10T15:36:22.677Z,0.87
2019-03-10T15:38:51.893Z,0.70
2019-03-10T15:41:21.252Z,0.80
2019-03-10T15:43:51.658Z,0.90
2019-03-10T15:46:20.986Z,1.00
2019-03-10T15:48:50.224Z,0.90
2019-03-10T15:51:19.554Z,0.90
2019-03-10T15:53:48.786Z,0.83
2019-03-10T15:56:18.128Z,0.70
2019-03-10T15:58:47.451Z,0.70
2019-03-10T16:01:16.723Z,0.93
2019-03-10T16:03:47.901Z,1.00
2019-03-10T16:06:18.804Z,1.30
2019-03-10T16:08:48.251Z,1.40
2019-03-10T16:11:18.794Z,1.20
2019-03-10T16:13:48.132Z,1.30
2019-03-10T16:16:17.435Z,0.80
2019-03-10T16:18:46.733Z,1.10
2019-03-10T16:21:16.085Z,0.90
2019-03-10T16:23:45.332Z,1.00
2019-03-10T16:26:14.773Z,1.37
2019-03-10T16:28:44.176Z,1.87
2019-03-10T16:31:15.043Z,1.00
2019-03-10T16:33:44.342Z,1.30
2019-03-10T16:36:13.771Z,1.17
2019-03-10T16:38:43.126Z,1.57
2019-03-10T16:41:12.374Z,1.17
2019-03-10T16:43:45.002Z,1.00
2019-03-10T16:46:14.441Z,1.33
2019-03-10T16:48:43.642Z,1.40
2019-03-10T16:51:12.970Z,1.30
2019-03-10T16:53:42.301Z,2.40
2019-03-10T16:56:11.632Z,1.20
2019-03-10T16:58:40.931Z,1.30
2019-03-10T17:01:10.182Z,1.03
2019-03-10T17:03:39.464Z,1.10
2019-03-10T17:06:08.720Z,1.50
2019-03-10T17:08:37.916Z,1.00
2019-03-10T17:11:07.400Z,1.57
2019-03-10T17:15:05.225Z,1.50
2019-03-10T17:17:34.586Z,1.50
2019-03-10T17:20:03.971Z,1.03
2019-03-10T17:22:33.229Z,1.20
2019-03-10T17:25:02.436Z,1.50
2019-03-10T17:27:31.682Z,1.43
2019-03-10T17:30:00.982Z,1.00
2019-03-10T17:32:30.195Z,1.20
2019-03-10T17:34:59.395Z,1.40
2019-03-10T17:37:28.755Z,1.53
2019-03-10T17:39:58.057Z,1.43
2019-03-10T17:42:27.361Z,1.07
2019-03-10T17:44:56.840Z,1.37
2019-03-10T17:47:26.971Z,1.30
2019-03-10T17:49:56.290Z,1.20
2019-03-10T17:52:25.657Z,1.40
2019-03-10T17:54:55.034Z,1.50
2019-03-10T17:57:24.361Z,1.27
2019-03-10T17:59:53.974Z,1.50
2019-03-10T18:02:23.314Z,1.37
2019-03-10T18:04:52.656Z,1.30
2019-03-10T18:07:21.975Z,1.30
2019-03-10T18:09:51.190Z,1.57
2019-03-10T18:12:20.715Z,1.40
2019-03-10T18:14:49.975Z,1.60
2019-03-10T18:17:19.201Z,1.10
2019-03-10T18:19:48.720Z,1.90
2019-03-10T18:22:17.999Z,1.17
2019-03-10T18:24:47.272Z,1.20
2019-03-10T18:27:16.543Z,1.20
2019-03-10T18:29:45.965Z,1.37
2019-03-10T18:32:15.314Z,1.20
2019-03-10T18:34:44.613Z,1.47
2019-03-10T18:37:14.019Z,1.50
2019-03-10T18:39:43.327Z,1.40
2019-03-10T18:42:12.746Z,1.67
2019-03-10T18:44:42.004Z,1.47
2019-03-10T18:47:11.347Z,1.47
2019-03-10T18:49:40.572Z,1.90
2019-03-10T18:52:09.873Z,1.80
2019-03-10T18:54:39.099Z,2.00
2019-03-10T18:57:08.421Z,1.80
2019-03-10T18:59:37.822Z,1.77
2019-03-10T19:02:07.012Z,1.67
2019-03-10T19:04:36.311Z,1.60
2019-03-10T19:07:05.609Z,1.70
2019-03-10T19:09:34.914Z,1.67
2019-03-10T19:12:04.111Z,1.57
2019-03-10T19:14:33.695Z,1.57
2019-03-10T19:17:02.911Z,1.50
2019-03-10T19:19:32.220Z,1.67
2019-03-10T19:22:01.668Z,1.90
2019-03-10T19:24:30.867Z,1.70
2019-03-10T19:27:00.101Z,1.80
2019-03-10T19:29:29.406Z,1.80
2019-03-10T19:31:58.702Z,1.53
2019-03-10T19:34:27.974Z,1.70
2019-03-10T19:36:57.758Z,1.77
2019-03-10T19:39:27.016Z,1.50
2019-03-10T19:41:56.463Z,1.57
2019-03-10T19:44:25.818Z,1.50
2019-03-10T19:46:55.299Z,1.70
2019-03-10T19:49:24.549Z,1.53
2019-03-10T19:51:53.899Z,1.80
2019-03-10T19:54:23.138Z,2.00
2019-03-10T19:56:52.429Z,1.70
2019-03-10T19:59:21.933Z,1.70
2019-03-10T20:01:51.201Z,1.67
2019-03-10T20:04:20.576Z,1.80
2019-03-10T20:06:49.837Z,1.83
2019-03-10T20:09:19.096Z,2.07
2019-03-10T20:11:48.418Z,1.60
2019-03-10T20:14:17.852Z,1.60
2019-03-10T20:16:47.275Z,2.00
2019-03-10T20:19:16.567Z,1.80
2019-03-10T20:21:45.804Z,2.17
2019-03-10T20:24:15.025Z,2.00
2019-03-10T20:26:44.199Z,1.70
2019-03-10T20:29:13.464Z,1.70
2019-03-10T20:31:42.680Z,1.60
2019-03-10T20:34:12.141Z,1.50
2019-03-10T20:36:41.408Z,1.80
2019-03-10T20:39:10.583Z,2.10
2019-03-10T20:41:39.799Z,2.30
2019-03-10T20:44:09.141Z,1.57
2019-03-10T20:46:38.377Z,1.80
2019-03-10T20:49:07.577Z,1.30
2019-03-10T20:51:36.830Z,1.77
2019-03-10T20:54:06.146Z,1.43
2019-03-10T20:56:35.440Z,1.90
2019-03-10T20:59:04.829Z,1.53
2019-03-10T21:01:36.464Z,1.70
2019-03-10T21:04:05.672Z,1.23
2019-03-10T21:06:34.956Z,1.77
2019-03-10T21:09:05.282Z,1.63
2019-03-10T21:11:34.478Z,1.53
2019-03-10T21:14:05.836Z,1.20
2019-03-10T21:16:35.024Z,1.70
2019-03-10T21:19:04.431Z,1.60
2019-03-10T21:21:33.666Z,1.37
2019-03-10T21:24:02.865Z,1.60
2019-03-10T21:26:32.068Z,1.53
2019-03-10T21:29:03.566Z,1.30
2019-03-10T21:31:32.193Z,1.60
2019-03-10T21:34:01.431Z,1.77
2019-03-10T21:36:30.777Z,1.70
2019-03-10T21:39:00.043Z,1.40
2019-03-10T21:41:29.271Z,1.47
2019-03-10T21:43:58.676Z,1.50
2019-03-10T21:46:28.191Z,1.70
2019-03-10T21:48:57.433Z,1.50
2019-03-10T21:51:26.660Z,1.60
2019-03-10T21:53:55.850Z,1.30
2019-03-10T21:56:25.024Z,1.67
2019-03-10T21:58:54.318Z,1.40
2019-03-10T22:01:23.510Z,1.30
2019-03-10T22:03:52.707Z,1.63
2019-03-10T22:06:21.985Z,1.37
2019-03-10T22:08:51.169Z,1.67
2019-03-10T22:11:20.374Z,1.47
2019-03-10T22:13:49.578Z,1.57
2019-03-10T22:16:18.806Z,1.50
2019-03-10T22:18:48.002Z,1.53
2019-03-10T22:21:17.349Z,1.70
2019-03-10T22:23:46.606Z,1.23
2019-03-10T22:26:15.817Z,1.57
2019-03-10T22:28:45.152Z,1.30
2019-03-10T22:31:14.505Z,1.43
2019-03-10T22:33:43.681Z,1.70
2019-03-10T22:36:13.159Z,1.50
2019-03-10T22:38:42.418Z,1.43
2019-03-10T22:41:11.615Z,1.43
2019-03-10T22:43:40.917Z,1.40
2019-03-10T22:46:10.159Z,1.50
2019-03-10T22:48:39.551Z,1.60
2019-03-10T22:51:08.794Z,1.73
2019-03-10T22:53:38.063Z,1.90
2019-03-10T22:56:07.237Z,1.60
2019-03-10T22:58:36.482Z,1.47
2019-03-10T23:01:05.776Z,1.50
2019-03-10T23:03:34.963Z,1.43
2019-03-10T23:06:04.567Z,1.80
2019-03-10T23:08:33.804Z,1.90
2019-03-10T23:11:02.988Z,1.73
2019-03-10T23:13:32.216Z,1.27
2019-03-10T23:16:01.420Z,1.40
2019-03-10T23:18:30.632Z,1.50
2019-03-10T23:20:59.942Z,1.40
2019-03-10T23:23:29.610Z,1.40
2019-03-10T23:25:58.807Z,1.40
2019-03-10T23:28:28.060Z,1.47
2019-03-10T23:30:57.509Z,1.90
2019-03-10T23:33:26.755Z,1.37
2019-03-10T23:35:56.051Z,1.60
2019-03-10T23:38:25.242Z,1.60
2019-03-10T23:40:54.470Z,1.30
2019-03-10T23:43:23.707Z,1.50
2019-03-10T23:45:52.914Z,1.50
2019-03-10T23:48:22.184Z,1.50
2019-03-10T23:50:52.296Z,1.50
2019-03-10T23:53:21.518Z,1.53
2019-03-10T23:55:50.703Z,1.33
2019-03-10T23:58:19.945Z,1.30
